sensor_id;sensor_type;location;lat;lon;timestamp;temperature;humidity
7516;DHT22;3799;47.184;8.538;2022-11-21T00:03:42;7.00;99.90
7516;DHT22;3799;47.184;8.538;2022-11-21T00:06:07;7.10;99.90
7516;DHT22;3799;47.184;8.538;2022-11-21T00:08:33;7.00;99.90
7516;DHT22;3799;47.184;8.538;2022-11-21T00:10:58;7.20;99.90
7516;DHT22;3799;47.184;8.538;2022-11-21T00:13:24;7.40;99.90
7516;DHT22;3799;47.184;8.538;2022-11-21T00:15:50;7.20;99.90
7516;DHT22;3799;47.184;8.538;2022-11-21T00:18:15;7.20;99.90
7516;DHT22;3799;47.184;8.538;2022-11-21T00:20:41;7.10;99.90
7516;DHT22;3799;47.184;8.538;2022-11-21T00:23:07;7.20;99.90
7516;DHT22;3799;47.184;8.538;2022-11-21T00:25:32;7.30;99.90
7516;DHT22;3799;47.184;8.538;2022-11-21T00:27:58;7.30;99.90
7516;DHT22;3799;47.184;8.538;2022-11-21T00:30:23;7.10;99.90
7516;DHT22;3799;47.184;8.538;2022-11-21T00:32:49;7.00;99.90
7516;DHT22;3799;47.184;8.538;2022-11-21T00:35:15;7.40;99.90
7516;DHT22;3799;47.184;8.538;2022-11-21T00:37:40;7.40;99.90
7516;DHT22;3799;47.184;8.538;2022-11-21T00:40:06;7.40;99.90
7516;DHT22;3799;47.184;8.538;2022-11-21T00:42:34;7.40;99.90
7516;DHT22;3799;47.184;8.538;2022-11-21T00:44:59;7.40;99.90
7516;DHT22;3799;47.184;8.538;2022-11-21T00:47:25;7.40;99.90
7516;DHT22;3799;47.184;8.538;2022-11-21T00:49:50;7.40;99.90
7516;DHT22;3799;47.184;8.538;2022-11-21T00:52:16;7.30;99.90
7516;DHT22;3799;47.184;8.538;2022-11-21T00:54:42;7.20;99.90
7516;DHT22;3799;47.184;8.538;2022-11-21T00:57:08;7.40;99.90
7516;DHT22;3799;47.184;8.538;2022-11-21T00:59:33;7.30;99.90
7516;DHT22;3799;47.184;8.538;2022-11-21T01:01:59;7.30;99.90
7516;DHT22;3799;47.184;8.538;2022-11-21T01:04:25;7.40;99.90
7516;DHT22;3799;47.184;8.538;2022-11-21T01:06:50;7.50;99.90
7516;DHT22;3799;47.184;8.538;2022-11-21T01:09:16;7.40;99.90
7516;DHT22;3799;47.184;8.538;2022-11-21T01:11:41;7.50;99.90
7516;DHT22;3799;47.184;8.538;2022-11-21T01:14:07;7.20;99.90
7516;DHT22;3799;47.184;8.538;2022-11-21T01:16:36;7.40;99.90
7516;DHT22;3799;47.184;8.538;2022-11-21T01:19:01;7.60;99.90
7516;DHT22;3799;47.184;8.538;2022-11-21T01:21:28;7.40;99.90
7516;DHT22;3799;47.184;8.538;2022-11-21T01:23:54;7.30;99.90
7516;DHT22;3799;47.184;8.538;2022-11-21T01:26:22;7.30;99.90
7516;DHT22;3799;47.184;8.538;2022-11-21T01:28:47;7.50;99.90
7516;DHT22;3799;47.184;8.538;2022-11-21T01:31:14;7.60;99.90
7516;DHT22;3799;47.184;8.538;2022-11-21T01:33:40;7.40;99.90
7516;DHT22;3799;47.184;8.538;2022-11-21T01:38:32;7.40;99.90
7516;DHT22;3799;47.184;8.538;2022-11-21T01:40:57;7.40;99.90
7516;DHT22;3799;47.184;8.538;2022-11-21T01:43:26;7.40;99.90
7516;DHT22;3799;47.184;8.538;2022-11-21T01:48:17;7.30;99.90
7516;DHT22;3799;47.184;8.538;2022-11-21T01:50:43;7.30;99.90
7516;DHT22;3799;47.184;8.538;2022-11-21T01:53:09;7.30;99.90
7516;DHT22;3799;47.184;8.538;2022-11-21T01:55:35;7.40;99.90
7516;DHT22;3799;47.184;8.538;2022-11-21T01:58:00;7.40;99.90
7516;DHT22;3799;47.184;8.538;2022-11-21T02:00:27;7.40;99.90
7516;DHT22;3799;47.184;8.538;2022-11-21T02:02:58;7.40;99.90
7516;DHT22;3799;47.184;8.538;2022-11-21T02:05:26;7.40;99.90
7516;DHT22;3799;47.184;8.538;2022-11-21T02:07:53;7.70;99.90
7516;DHT22;3799;47.184;8.538;2022-11-21T02:10:20;7.50;99.90
7516;DHT22;3799;47.184;8.538;2022-11-21T02:12:56;7.60;99.90
7516;DHT22;3799;47.184;8.538;2022-11-21T02:15:23;7.60;99.90
7516;DHT22;3799;47.184;8.538;2022-11-21T02:17:49;7.60;99.90
7516;DHT22;3799;47.184;8.538;2022-11-21T02:20:16;7.80;99.90
7516;DHT22;3799;47.184;8.538;2022-11-21T02:25:56;7.70;99.90
7516;DHT22;3799;47.184;8.538;2022-11-21T02:28:04;7.60;99.90
7516;DHT22;3799;47.184;8.538;2022-11-21T02:30:30;7.70;99.90
7516;DHT22;3799;47.184;8.538;2022-11-21T02:32:56;7.80;99.90
7516;DHT22;3799;47.184;8.538;2022-11-21T02:35:22;7.80;99.90
7516;DHT22;3799;47.184;8.538;2022-11-21T02:37:58;7.80;99.90
7516;DHT22;3799;47.184;8.538;2022-11-21T02:40:25;7.80;99.90
7516;DHT22;3799;47.184;8.538;2022-11-21T02:42:57;7.60;99.90
7516;DHT22;3799;47.184;8.538;2022-11-21T02:45:29;7.60;99.90
7516;DHT22;3799;47.184;8.538;2022-11-21T02:47:55;7.60;99.90
7516;DHT22;3799;47.184;8.538;2022-11-21T02:50:28;7.70;99.90
7516;DHT22;3799;47.184;8.538;2022-11-21T02:52:54;7.70;99.90
7516;DHT22;3799;47.184;8.538;2022-11-21T02:55:23;7.50;99.90
7516;DHT22;3799;47.184;8.538;2022-11-21T02:57:48;7.50;99.90
7516;DHT22;3799;47.184;8.538;2022-11-21T03:00:14;7.70;99.90
7516;DHT22;3799;47.184;8.538;2022-11-21T03:02:40;7.80;99.90
7516;DHT22;3799;47.184;8.538;2022-11-21T03:05:06;7.70;99.90
7516;DHT22;3799;47.184;8.538;2022-11-21T03:07:32;7.80;99.90
7516;DHT22;3799;47.184;8.538;2022-11-21T03:09:58;7.60;99.90
7516;DHT22;3799;47.184;8.538;2022-11-21T03:12:23;7.60;99.90
7516;DHT22;3799;47.184;8.538;2022-11-21T03:14:49;7.60;99.90
7516;DHT22;3799;47.184;8.538;2022-11-21T03:17:15;7.80;99.90
7516;DHT22;3799;47.184;8.538;2022-11-21T03:19:41;7.90;99.90
7516;DHT22;3799;47.184;8.538;2022-11-21T03:22:06;7.60;99.90
7516;DHT22;3799;47.184;8.538;2022-11-21T03:24:32;7.90;99.90
7516;DHT22;3799;47.184;8.538;2022-11-21T03:26:58;7.60;99.90
7516;DHT22;3799;47.184;8.538;2022-11-21T03:29:23;7.80;99.90
7516;DHT22;3799;47.184;8.538;2022-11-21T03:31:49;7.60;99.90
7516;DHT22;3799;47.184;8.538;2022-11-21T03:34:14;7.50;99.90
7516;DHT22;3799;47.184;8.538;2022-11-21T03:36:40;7.60;99.90
7516;DHT22;3799;47.184;8.538;2022-11-21T03:39:06;7.50;99.90
7516;DHT22;3799;47.184;8.538;2022-11-21T03:41:32;7.70;99.90
7516;DHT22;3799;47.184;8.538;2022-11-21T03:44:05;7.80;99.90
7516;DHT22;3799;47.184;8.538;2022-11-21T03:46:32;7.80;99.90
7516;DHT22;3799;47.184;8.538;2022-11-21T03:48:58;7.80;99.90
7516;DHT22;3799;47.184;8.538;2022-11-21T03:51:23;7.50;99.90
7516;DHT22;3799;47.184;8.538;2022-11-21T03:53:49;7.70;99.90
7516;DHT22;3799;47.184;8.538;2022-11-21T03:56:15;7.70;99.60
7516;DHT22;3799;47.184;8.538;2022-11-21T03:58:40;7.90;99.40
7516;DHT22;3799;47.184;8.538;2022-11-21T04:01:06;7.90;99.60
7516;DHT22;3799;47.184;8.538;2022-11-21T04:03:32;7.50;99.40
7516;DHT22;3799;47.184;8.538;2022-11-21T04:05:58;7.80;99.70
7516;DHT22;3799;47.184;8.538;2022-11-21T04:08:23;7.80;99.70
7516;DHT22;3799;47.184;8.538;2022-11-21T04:10:50;7.60;99.70
7516;DHT22;3799;47.184;8.538;2022-11-21T04:13:26;7.70;99.70
7516;DHT22;3799;47.184;8.538;2022-11-21T04:15:52;7.60;99.60
7516;DHT22;3799;47.184;8.538;2022-11-21T04:18:17;7.70;99.80
7516;DHT22;3799;47.184;8.538;2022-11-21T04:20:43;7.60;99.90
7516;DHT22;3799;47.184;8.538;2022-11-21T04:23:09;7.60;99.90
7516;DHT22;3799;47.184;8.538;2022-11-21T04:25:34;7.60;99.90
7516;DHT22;3799;47.184;8.538;2022-11-21T04:28:00;7.60;99.90
7516;DHT22;3799;47.184;8.538;2022-11-21T04:30:27;7.80;99.90
7516;DHT22;3799;47.184;8.538;2022-11-21T04:32:53;8.00;99.90
7516;DHT22;3799;47.184;8.538;2022-11-21T04:35:19;7.30;99.90
7516;DHT22;3799;47.184;8.538;2022-11-21T04:37:45;7.60;99.90
7516;DHT22;3799;47.184;8.538;2022-11-21T04:40:11;7.60;99.70
7516;DHT22;3799;47.184;8.538;2022-11-21T04:42:39;7.70;99.90
7516;DHT22;3799;47.184;8.538;2022-11-21T04:45:05;7.70;99.90
7516;DHT22;3799;47.184;8.538;2022-11-21T04:47:31;7.70;99.70
7516;DHT22;3799;47.184;8.538;2022-11-21T04:49:57;7.90;99.70
7516;DHT22;3799;47.184;8.538;2022-11-21T04:52:22;7.80;99.70
7516;DHT22;3799;47.184;8.538;2022-11-21T04:54:48;7.40;99.60
7516;DHT22;3799;47.184;8.538;2022-11-21T04:57:14;7.50;99.70
7516;DHT22;3799;47.184;8.538;2022-11-21T04:59:40;7.60;99.60
7516;DHT22;3799;47.184;8.538;2022-11-21T05:02:05;7.70;99.70
7516;DHT22;3799;47.184;8.538;2022-11-21T05:04:31;7.70;99.70
7516;DHT22;3799;47.184;8.538;2022-11-21T05:06:56;7.50;99.60
7516;DHT22;3799;47.184;8.538;2022-11-21T05:09:22;7.70;99.70
7516;DHT22;3799;47.184;8.538;2022-11-21T05:11:48;7.70;99.80
7516;DHT22;3799;47.184;8.538;2022-11-21T05:14:32;7.60;99.90
7516;DHT22;3799;47.184;8.538;2022-11-21T05:16:57;7.50;99.70
7516;DHT22;3799;47.184;8.538;2022-11-21T05:19:23;7.60;99.90
7516;DHT22;3799;47.184;8.538;2022-11-21T05:21:49;7.40;99.90
7516;DHT22;3799;47.184;8.538;2022-11-21T05:24:15;7.70;99.90
7516;DHT22;3799;47.184;8.538;2022-11-21T05:26:40;7.90;99.90
7516;DHT22;3799;47.184;8.538;2022-11-21T05:29:06;7.60;99.90
7516;DHT22;3799;47.184;8.538;2022-11-21T05:31:31;7.50;99.80
7516;DHT22;3799;47.184;8.538;2022-11-21T05:33:57;7.60;99.60
7516;DHT22;3799;47.184;8.538;2022-11-21T05:36:23;7.70;99.30
7516;DHT22;3799;47.184;8.538;2022-11-21T05:38:48;7.70;99.40
7516;DHT22;3799;47.184;8.538;2022-11-21T05:41:14;7.60;99.40
7516;DHT22;3799;47.184;8.538;2022-11-21T05:43:40;7.70;99.60
7516;DHT22;3799;47.184;8.538;2022-11-21T05:46:13;7.70;99.50
7516;DHT22;3799;47.184;8.538;2022-11-21T05:48:39;7.50;99.50
7516;DHT22;3799;47.184;8.538;2022-11-21T05:51:05;7.60;99.70
7516;DHT22;3799;47.184;8.538;2022-11-21T05:53:30;7.70;99.90
7516;DHT22;3799;47.184;8.538;2022-11-21T05:56:00;7.60;98.70
7516;DHT22;3799;47.184;8.538;2022-11-21T05:58:27;7.60;98.50
7516;DHT22;3799;47.184;8.538;2022-11-21T06:00:56;7.80;98.50
7516;DHT22;3799;47.184;8.538;2022-11-21T06:03:22;7.70;97.90
7516;DHT22;3799;47.184;8.538;2022-11-21T06:08:26;7.70;98.10
7516;DHT22;3799;47.184;8.538;2022-11-21T06:10:52;7.60;97.90
7516;DHT22;3799;47.184;8.538;2022-11-21T06:13:18;7.60;97.90
7516;DHT22;3799;47.184;8.538;2022-11-21T06:15:47;7.80;97.70
7516;DHT22;3799;47.184;8.538;2022-11-21T06:18:13;7.80;97.70
7516;DHT22;3799;47.184;8.538;2022-11-21T06:20:39;7.70;97.50
7516;DHT22;3799;47.184;8.538;2022-11-21T06:23:05;7.90;97.70
7516;DHT22;3799;47.184;8.538;2022-11-21T06:25:30;7.70;97.60
7516;DHT22;3799;47.184;8.538;2022-11-21T06:27:58;7.80;98.10
7516;DHT22;3799;47.184;8.538;2022-11-21T06:30:23;8.00;98.90
7516;DHT22;3799;47.184;8.538;2022-11-21T06:32:49;7.80;98.40
7516;DHT22;3799;47.184;8.538;2022-11-21T06:35:14;7.90;98.90
7516;DHT22;3799;47.184;8.538;2022-11-21T06:37:40;7.70;98.90
7516;DHT22;3799;47.184;8.538;2022-11-21T06:40:08;7.90;99.20
7516;DHT22;3799;47.184;8.538;2022-11-21T06:42:34;7.70;99.30
7516;DHT22;3799;47.184;8.538;2022-11-21T06:44:59;7.60;99.10
7516;DHT22;3799;47.184;8.538;2022-11-21T06:47:25;7.60;99.10
7516;DHT22;3799;47.184;8.538;2022-11-21T06:49:50;7.90;98.90
7516;DHT22;3799;47.184;8.538;2022-11-21T06:52:16;7.80;98.80
7516;DHT22;3799;47.184;8.538;2022-11-21T06:54:42;7.70;98.40
7516;DHT22;3799;47.184;8.538;2022-11-21T06:57:07;7.90;98.90
7516;DHT22;3799;47.184;8.538;2022-11-21T06:59:33;7.80;98.70
7516;DHT22;3799;47.184;8.538;2022-11-21T07:01:59;7.80;98.90
7516;DHT22;3799;47.184;8.538;2022-11-21T07:04:24;8.00;99.10
7516;DHT22;3799;47.184;8.538;2022-11-21T07:06:50;7.80;99.20
7516;DHT22;3799;47.184;8.538;2022-11-21T07:09:15;8.00;98.90
7516;DHT22;3799;47.184;8.538;2022-11-21T07:11:41;7.90;98.20
7516;DHT22;3799;47.184;8.538;2022-11-21T07:14:07;7.80;98.20
7516;DHT22;3799;47.184;8.538;2022-11-21T07:16:32;8.10;98.60
7516;DHT22;3799;47.184;8.538;2022-11-21T07:18:58;7.80;98.70
7516;DHT22;3799;47.184;8.538;2022-11-21T07:21:24;8.00;98.70
7516;DHT22;3799;47.184;8.538;2022-11-21T07:23:50;8.10;99.00
7516;DHT22;3799;47.184;8.538;2022-11-21T07:26:16;8.10;99.10
7516;DHT22;3799;47.184;8.538;2022-11-21T07:28:41;7.70;98.70
7516;DHT22;3799;47.184;8.538;2022-11-21T07:31:08;8.00;99.10
7516;DHT22;3799;47.184;8.538;2022-11-21T07:33:33;8.20;99.20
7516;DHT22;3799;47.184;8.538;2022-11-21T07:35:59;8.20;99.50
7516;DHT22;3799;47.184;8.538;2022-11-21T07:38:25;8.10;99.80
7516;DHT22;3799;47.184;8.538;2022-11-21T07:40:50;8.00;99.50
7516;DHT22;3799;47.184;8.538;2022-11-21T07:43:16;8.00;99.70
7516;DHT22;3799;47.184;8.538;2022-11-21T07:45:42;7.90;99.90
7516;DHT22;3799;47.184;8.538;2022-11-21T07:48:08;8.00;99.80
7516;DHT22;3799;47.184;8.538;2022-11-21T07:50:34;8.00;99.90
7516;DHT22;3799;47.184;8.538;2022-11-21T07:53:01;7.80;99.60
7516;DHT22;3799;47.184;8.538;2022-11-21T07:55:28;7.90;99.70
7516;DHT22;3799;47.184;8.538;2022-11-21T07:57:57;7.90;99.90
7516;DHT22;3799;47.184;8.538;2022-11-21T08:00:23;8.10;99.90
7516;DHT22;3799;47.184;8.538;2022-11-21T08:02:48;7.80;99.90
7516;DHT22;3799;47.184;8.538;2022-11-21T08:05:14;8.10;99.90
7516;DHT22;3799;47.184;8.538;2022-11-21T08:07:40;8.00;99.90
7516;DHT22;3799;47.184;8.538;2022-11-21T08:10:05;8.10;99.90
7516;DHT22;3799;47.184;8.538;2022-11-21T08:12:31;7.90;99.90
7516;DHT22;3799;47.184;8.538;2022-11-21T08:14:57;8.10;99.90
7516;DHT22;3799;47.184;8.538;2022-11-21T08:17:26;8.10;99.90
7516;DHT22;3799;47.184;8.538;2022-11-21T08:19:51;8.00;99.90
7516;DHT22;3799;47.184;8.538;2022-11-21T08:22:20;8.10;99.90
7516;DHT22;3799;47.184;8.538;2022-11-21T08:24:45;8.20;99.90
7516;DHT22;3799;47.184;8.538;2022-11-21T08:27:11;8.50;99.90
7516;DHT22;3799;47.184;8.538;2022-11-21T08:29:37;8.50;99.90
7516;DHT22;3799;47.184;8.538;2022-11-21T08:32:03;8.40;99.90
7516;DHT22;3799;47.184;8.538;2022-11-21T08:34:31;8.50;99.90
7516;DHT22;3799;47.184;8.538;2022-11-21T08:36:57;8.40;99.90
7516;DHT22;3799;47.184;8.538;2022-11-21T08:39:24;8.60;99.70
7516;DHT22;3799;47.184;8.538;2022-11-21T08:41:50;8.70;99.70
7516;DHT22;3799;47.184;8.538;2022-11-21T08:44:31;8.70;99.10
7516;DHT22;3799;47.184;8.538;2022-11-21T08:46:57;8.50;99.00
7516;DHT22;3799;47.184;8.538;2022-11-21T08:49:23;8.50;99.00
7516;DHT22;3799;47.184;8.538;2022-11-21T08:51:49;8.60;99.10
7516;DHT22;3799;47.184;8.538;2022-11-21T08:54:18;8.40;99.10
7516;DHT22;3799;47.184;8.538;2022-11-21T08:56:45;8.20;99.00
7516;DHT22;3799;47.184;8.538;2022-11-21T08:59:10;8.20;99.00
7516;DHT22;3799;47.184;8.538;2022-11-21T09:01:36;8.30;99.20
7516;DHT22;3799;47.184;8.538;2022-11-21T09:04:02;8.50;99.40
7516;DHT22;3799;47.184;8.538;2022-11-21T09:06:28;8.40;99.60
7516;DHT22;3799;47.184;8.538;2022-11-21T09:08:53;8.60;99.80
7516;DHT22;3799;47.184;8.538;2022-11-21T09:11:19;8.60;99.80
7516;DHT22;3799;47.184;8.538;2022-11-21T09:13:45;8.30;99.60
7516;DHT22;3799;47.184;8.538;2022-11-21T09:16:34;8.50;99.90
7516;DHT22;3799;47.184;8.538;2022-11-21T09:19:18;8.80;99.80
7516;DHT22;3799;47.184;8.538;2022-11-21T09:21:44;8.80;99.70
7516;DHT22;3799;47.184;8.538;2022-11-21T09:24:10;8.50;99.70
7516;DHT22;3799;47.184;8.538;2022-11-21T09:26:35;8.50;99.40
7516;DHT22;3799;47.184;8.538;2022-11-21T09:29:01;8.60;99.70
7516;DHT22;3799;47.184;8.538;2022-11-21T09:31:29;8.50;99.80
7516;DHT22;3799;47.184;8.538;2022-11-21T09:33:54;8.80;99.90
7516;DHT22;3799;47.184;8.538;2022-11-21T09:36:20;8.70;99.90
7516;DHT22;3799;47.184;8.538;2022-11-21T09:38:46;9.10;98.90
7516;DHT22;3799;47.184;8.538;2022-11-21T09:41:15;8.90;98.40
7516;DHT22;3799;47.184;8.538;2022-11-21T09:44:12;9.10;98.20
7516;DHT22;3799;47.184;8.538;2022-11-21T09:46:46;9.10;97.40
7516;DHT22;3799;47.184;8.538;2022-11-21T09:49:12;9.20;96.70
7516;DHT22;3799;47.184;8.538;2022-11-21T09:51:39;9.40;96.20
7516;DHT22;3799;47.184;8.538;2022-11-21T09:56:35;9.30;94.90
7516;DHT22;3799;47.184;8.538;2022-11-21T10:01:47;9.70;94.90
7516;DHT22;3799;47.184;8.538;2022-11-21T10:04:13;9.60;94.30
7516;DHT22;3799;47.184;8.538;2022-11-21T10:17:12;10.10;93.80
7516;DHT22;3799;47.184;8.538;2022-11-21T10:19:50;10.10;93.60
7516;DHT22;3799;47.184;8.538;2022-11-21T10:27:19;9.90;93.70
7516;DHT22;3799;47.184;8.538;2022-11-21T10:30:20;9.90;93.20
7516;DHT22;3799;47.184;8.538;2022-11-21T10:32:39;10.50;92.20
7516;DHT22;3799;47.184;8.538;2022-11-21T10:35:18;10.30;91.70
7516;DHT22;3799;47.184;8.538;2022-11-21T10:37:47;10.90;91.20
7516;DHT22;3799;47.184;8.538;2022-11-21T10:46:01;10.90;90.40
7516;DHT22;3799;47.184;8.538;2022-11-21T10:48:27;11.10;88.60
7516;DHT22;3799;47.184;8.538;2022-11-21T10:53:24;11.20;85.10
7516;DHT22;3799;47.184;8.538;2022-11-21T10:58:46;10.90;83.30
7516;DHT22;3799;47.184;8.538;2022-11-21T11:03:44;11.20;82.00
7516;DHT22;3799;47.184;8.538;2022-11-21T11:06:09;11.00;81.70
7516;DHT22;3799;47.184;8.538;2022-11-21T11:08:48;11.20;81.10
7516;DHT22;3799;47.184;8.538;2022-11-21T11:11:15;11.20;80.90
7516;DHT22;3799;47.184;8.538;2022-11-21T11:13:51;11.40;81.10
7516;DHT22;3799;47.184;8.538;2022-11-21T11:16:18;11.70;78.80
7516;DHT22;3799;47.184;8.538;2022-11-21T11:21:21;11.80;76.80
7516;DHT22;3799;47.184;8.538;2022-11-21T11:23:51;12.10;75.30
7516;DHT22;3799;47.184;8.538;2022-11-21T11:26:19;12.00;73.10
7516;DHT22;3799;47.184;8.538;2022-11-21T11:28:45;11.90;71.10
7516;DHT22;3799;47.184;8.538;2022-11-21T11:31:13;12.10;71.00
7516;DHT22;3799;47.184;8.538;2022-11-21T11:33:39;12.00;71.10
7516;DHT22;3799;47.184;8.538;2022-11-21T11:36:16;12.10;72.50
7516;DHT22;3799;47.184;8.538;2022-11-21T11:38:45;12.20;72.50
7516;DHT22;3799;47.184;8.538;2022-11-21T11:41:23;12.30;70.70
7516;DHT22;3799;47.184;8.538;2022-11-21T11:43:56;12.10;69.10
7516;DHT22;3799;47.184;8.538;2022-11-21T11:46:49;12.40;67.80
7516;DHT22;3799;47.184;8.538;2022-11-21T11:49:40;12.40;65.20
7516;DHT22;3799;47.184;8.538;2022-11-21T11:52:30;12.20;64.50
7516;DHT22;3799;47.184;8.538;2022-11-21T11:54:59;12.30;65.20
7516;DHT22;3799;47.184;8.538;2022-11-21T11:57:26;12.50;68.40
7516;DHT22;3799;47.184;8.538;2022-11-21T12:00:06;12.30;70.30
7516;DHT22;3799;47.184;8.538;2022-11-21T12:02:44;12.40;69.20
7516;DHT22;3799;47.184;8.538;2022-11-21T12:05:16;12.30;67.90
7516;DHT22;3799;47.184;8.538;2022-11-21T12:07:45;12.40;69.90
7516;DHT22;3799;47.184;8.538;2022-11-21T12:10:14;12.50;71.80
7516;DHT22;3799;47.184;8.538;2022-11-21T12:12:41;12.50;72.40
7516;DHT22;3799;47.184;8.538;2022-11-21T12:15:12;12.50;74.60
7516;DHT22;3799;47.184;8.538;2022-11-21T12:20:50;12.60;74.50
7516;DHT22;3799;47.184;8.538;2022-11-21T12:23:18;12.90;74.10
7516;DHT22;3799;47.184;8.538;2022-11-21T12:28:37;12.80;70.90
7516;DHT22;3799;47.184;8.538;2022-11-21T12:31:08;12.70;71.50
7516;DHT22;3799;47.184;8.538;2022-11-21T12:33:38;13.00;71.60
7516;DHT22;3799;47.184;8.538;2022-11-21T12:52:03;12.30;69.20
7516;DHT22;3799;47.184;8.538;2022-11-21T12:57:17;12.40;72.30
7516;DHT22;3799;47.184;8.538;2022-11-21T13:05:16;12.70;68.50
7516;DHT22;3799;47.184;8.538;2022-11-21T13:07:42;12.70;68.40
7516;DHT22;3799;47.184;8.538;2022-11-21T13:10:13;12.80;69.40
7516;DHT22;3799;47.184;8.538;2022-11-21T13:12:51;12.60;66.80
7516;DHT22;3799;47.184;8.538;2022-11-21T13:15:26;12.80;66.90
7516;DHT22;3799;47.184;8.538;2022-11-21T13:17:57;13.00;68.00
7516;DHT22;3799;47.184;8.538;2022-11-21T13:20:28;13.00;66.60
7516;DHT22;3799;47.184;8.538;2022-11-21T13:23:01;12.80;66.00
7516;DHT22;3799;47.184;8.538;2022-11-21T13:28:42;12.50;64.70
7516;DHT22;3799;47.184;8.538;2022-11-21T13:30:45;12.40;65.90
7516;DHT22;3799;47.184;8.538;2022-11-21T13:33:57;12.50;64.40
7516;DHT22;3799;47.184;8.538;2022-11-21T13:35:57;12.60;67.20
7516;DHT22;3799;47.184;8.538;2022-11-21T13:38:23;12.60;67.30
7516;DHT22;3799;47.184;8.538;2022-11-21T13:40:48;12.30;64.60
7516;DHT22;3799;47.184;8.538;2022-11-21T13:43:33;12.30;65.90
7516;DHT22;3799;47.184;8.538;2022-11-21T13:45:59;12.30;67.30
7516;DHT22;3799;47.184;8.538;2022-11-21T13:53:36;11.80;68.70
7516;DHT22;3799;47.184;8.538;2022-11-21T13:58:41;11.90;71.40
7516;DHT22;3799;47.184;8.538;2022-11-21T14:12:01;12.60;69.50
7516;DHT22;3799;47.184;8.538;2022-11-21T14:14:35;12.50;67.60
7516;DHT22;3799;47.184;8.538;2022-11-21T14:19:37;12.70;66.50
7516;DHT22;3799;47.184;8.538;2022-11-21T14:22:04;12.20;66.70
7516;DHT22;3799;47.184;8.538;2022-11-21T14:24:30;12.20;67.30
7516;DHT22;3799;47.184;8.538;2022-11-21T14:26:56;11.70;67.90
7516;DHT22;3799;47.184;8.538;2022-11-21T14:29:38;11.80;67.30
7516;DHT22;3799;47.184;8.538;2022-11-21T14:32:04;11.50;68.30
7516;DHT22;3799;47.184;8.538;2022-11-21T14:34:30;11.30;69.90
7516;DHT22;3799;47.184;8.538;2022-11-21T14:36:58;10.90;70.50
7516;DHT22;3799;47.184;8.538;2022-11-21T14:39:25;11.10;71.60
7516;DHT22;3799;47.184;8.538;2022-11-21T14:41:54;10.60;70.80
7516;DHT22;3799;47.184;8.538;2022-11-21T14:44:21;10.50;71.10
7516;DHT22;3799;47.184;8.538;2022-11-21T14:46:47;10.60;71.80
7516;DHT22;3799;47.184;8.538;2022-11-21T14:51:39;10.10;72.30
7516;DHT22;3799;47.184;8.538;2022-11-21T14:54:09;10.10;73.50
7516;DHT22;3799;47.184;8.538;2022-11-21T14:56:36;10.20;75.20
7516;DHT22;3799;47.184;8.538;2022-11-21T14:59:07;10.20;76.70
7516;DHT22;3799;47.184;8.538;2022-11-21T15:01:36;10.10;77.10
7516;DHT22;3799;47.184;8.538;2022-11-21T15:04:02;10.00;77.80
7516;DHT22;3799;47.184;8.538;2022-11-21T15:06:29;10.00;78.60
7516;DHT22;3799;47.184;8.538;2022-11-21T15:08:58;9.60;80.30
7516;DHT22;3799;47.184;8.538;2022-11-21T15:11:27;9.50;80.70
7516;DHT22;3799;47.184;8.538;2022-11-21T15:13:55;9.50;81.60
7516;DHT22;3799;47.184;8.538;2022-11-21T15:16:22;9.50;82.40
7516;DHT22;3799;47.184;8.538;2022-11-21T15:18:48;9.80;83.90
7516;DHT22;3799;47.184;8.538;2022-11-21T15:21:14;9.40;84.20
7516;DHT22;3799;47.184;8.538;2022-11-21T15:23:42;9.20;84.70
7516;DHT22;3799;47.184;8.538;2022-11-21T15:26:27;9.30;86.00
7516;DHT22;3799;47.184;8.538;2022-11-21T15:28:54;9.50;86.90
7516;DHT22;3799;47.184;8.538;2022-11-21T15:31:20;9.30;87.30
7516;DHT22;3799;47.184;8.538;2022-11-21T15:34:02;9.40;88.00
7516;DHT22;3799;47.184;8.538;2022-11-21T15:36:29;9.20;88.70
7516;DHT22;3799;47.184;8.538;2022-11-21T15:38:56;9.00;89.40
7516;DHT22;3799;47.184;8.538;2022-11-21T15:46:33;8.90;89.60
7516;DHT22;3799;47.184;8.538;2022-11-21T15:51:25;9.10;89.40
7516;DHT22;3799;47.184;8.538;2022-11-21T15:53:51;8.90;90.40
7516;DHT22;3799;47.184;8.538;2022-11-21T15:56:18;9.00;90.90
7516;DHT22;3799;47.184;8.538;2022-11-21T15:58:44;9.10;91.30
7516;DHT22;3799;47.184;8.538;2022-11-21T16:01:11;9.10;91.60
7516;DHT22;3799;47.184;8.538;2022-11-21T16:03:37;8.90;91.90
7516;DHT22;3799;47.184;8.538;2022-11-21T16:06:03;8.80;92.30
7516;DHT22;3799;47.184;8.538;2022-11-21T16:08:28;8.90;92.70
7516;DHT22;3799;47.184;8.538;2022-11-21T16:10:54;8.90;93.10
7516;DHT22;3799;47.184;8.538;2022-11-21T16:13:20;8.90;93.60
7516;DHT22;3799;47.184;8.538;2022-11-21T16:15:45;8.50;93.90
7516;DHT22;3799;47.184;8.538;2022-11-21T16:18:11;8.70;94.80
7516;DHT22;3799;47.184;8.538;2022-11-21T16:20:37;8.50;95.30
7516;DHT22;3799;47.184;8.538;2022-11-21T16:23:02;8.50;95.70
7516;DHT22;3799;47.184;8.538;2022-11-21T16:25:28;8.40;96.10
7516;DHT22;3799;47.184;8.538;2022-11-21T16:27:54;8.60;97.30
7516;DHT22;3799;47.184;8.538;2022-11-21T16:30:20;8.40;97.40
7516;DHT22;3799;47.184;8.538;2022-11-21T16:32:46;8.60;97.90
7516;DHT22;3799;47.184;8.538;2022-11-21T16:35:11;8.50;98.30
7516;DHT22;3799;47.184;8.538;2022-11-21T16:37:37;8.40;98.90
7516;DHT22;3799;47.184;8.538;2022-11-21T16:40:03;8.20;99.20
7516;DHT22;3799;47.184;8.538;2022-11-21T16:42:29;8.20;99.60
7516;DHT22;3799;47.184;8.538;2022-11-21T16:44:55;8.50;99.80
7516;DHT22;3799;47.184;8.538;2022-11-21T16:47:21;8.20;99.50
7516;DHT22;3799;47.184;8.538;2022-11-21T16:49:46;8.30;99.80
7516;DHT22;3799;47.184;8.538;2022-11-21T16:52:13;8.00;99.90
7516;DHT22;3799;47.184;8.538;2022-11-21T16:54:39;7.90;99.90
7516;DHT22;3799;47.184;8.538;2022-11-21T16:57:04;8.00;99.90
7516;DHT22;3799;47.184;8.538;2022-11-21T16:59:31;8.00;99.90
7516;DHT22;3799;47.184;8.538;2022-11-21T17:01:57;8.20;99.90
7516;DHT22;3799;47.184;8.538;2022-11-21T17:04:23;7.90;99.90
7516;DHT22;3799;47.184;8.538;2022-11-21T17:06:49;7.90;99.90
7516;DHT22;3799;47.184;8.538;2022-11-21T17:09:15;7.90;99.90
7516;DHT22;3799;47.184;8.538;2022-11-21T17:11:43;7.90;99.90
7516;DHT22;3799;47.184;8.538;2022-11-21T17:14:10;8.10;99.90
7516;DHT22;3799;47.184;8.538;2022-11-21T17:16:35;8.00;99.90
7516;DHT22;3799;47.184;8.538;2022-11-21T17:19:02;8.10;99.90
7516;DHT22;3799;47.184;8.538;2022-11-21T17:21:28;8.00;99.90
7516;DHT22;3799;47.184;8.538;2022-11-21T17:23:54;8.10;99.90
7516;DHT22;3799;47.184;8.538;2022-11-21T17:26:21;8.00;99.90
7516;DHT22;3799;47.184;8.538;2022-11-21T17:28:50;7.80;99.90
7516;DHT22;3799;47.184;8.538;2022-11-21T17:31:16;7.90;99.90
7516;DHT22;3799;47.184;8.538;2022-11-21T17:33:42;8.00;99.90
7516;DHT22;3799;47.184;8.538;2022-11-21T17:36:12;8.10;99.90
7516;DHT22;3799;47.184;8.538;2022-11-21T17:38:41;7.90;99.90
7516;DHT22;3799;47.184;8.538;2022-11-21T17:41:11;8.20;99.90
7516;DHT22;3799;47.184;8.538;2022-11-21T17:43:39;7.90;99.90
7516;DHT22;3799;47.184;8.538;2022-11-21T17:46:06;7.80;99.90
7516;DHT22;3799;47.184;8.538;2022-11-21T17:48:33;7.90;99.90
7516;DHT22;3799;47.184;8.538;2022-11-21T17:51:20;8.00;99.90
7516;DHT22;3799;47.184;8.538;2022-11-21T17:53:48;8.00;99.90
7516;DHT22;3799;47.184;8.538;2022-11-21T17:56:15;8.00;99.90
7516;DHT22;3799;47.184;8.538;2022-11-21T17:58:42;8.00;99.90
7516;DHT22;3799;47.184;8.538;2022-11-21T18:01:08;8.10;99.90
7516;DHT22;3799;47.184;8.538;2022-11-21T18:03:35;7.90;99.90
7516;DHT22;3799;47.184;8.538;2022-11-21T18:06:04;8.10;99.90
7516;DHT22;3799;47.184;8.538;2022-11-21T18:08:31;8.10;99.90
7516;DHT22;3799;47.184;8.538;2022-11-21T18:10:57;8.20;99.90